createdAt,value
2018-07-17T00:02:36.643Z,98.70
2018-07-17T00:07:31.139Z,98.60
2018-07-17T00:12:25.670Z,98.60
2018-07-17T00:17:20.198Z,98.60
2018-07-17T00:22:14.809Z,98.60
2018-07-17T00:27:09.477Z,98.70
2018-07-17T00:36:58.236Z,99.30
2018-07-17T00:41:52.760Z,99.60
2018-07-17T00:46:47.305Z,99.40
2018-07-17T00:51:41.902Z,99.60
2018-07-17T00:56:36.409Z,99.90
2018-07-17T01:01:36.142Z,99.90
2018-07-17T01:06:35.843Z,99.90
2018-07-17T01:11:35.461Z,99.90
2018-07-17T01:16:30.019Z,99.90
2018-07-17T01:21:24.653Z,99.90
2018-07-17T01:26:19.184Z,99.90
2018-07-17T01:31:13.689Z,99.90
2018-07-17T01:36:08.186Z,99.90
2018-07-17T01:41:02.805Z,99.90
2018-07-17T01:45:57.333Z,99.90
2018-07-17T01:50:51.845Z,99.90
2018-07-17T01:55:46.334Z,99.90
2018-07-17T02:00:40.917Z,99.90
2018-07-17T02:05:35.437Z,99.90
2018-07-17T02:10:29.977Z,99.90
2018-07-17T02:15:24.493Z,99.90
2018-07-17T02:20:18.987Z,99.90
2018-07-17T02:25:13.492Z,99.90
2018-07-17T02:30:08.017Z,99.90
2018-07-17T02:35:02.532Z,99.90
2018-07-17T02:39:57.068Z,99.90
2018-07-17T02:44:51.596Z,99.90
2018-07-17T02:49:46.134Z,99.90
2018-07-17T02:54:40.613Z,99.90
2018-07-17T02:59:35.148Z,99.90
2018-07-17T03:04:29.691Z,99.90
2018-07-17T03:09:24.244Z,99.90
2018-07-17T03:14:18.740Z,99.90
2018-07-17T03:19:13.267Z,99.90
2018-07-17T03:24:07.848Z,99.90
2018-07-17T03:29:02.374Z,99.90
2018-07-17T03:33:56.854Z,99.90
2018-07-17T03:43:45.969Z,99.90
2018-07-17T03:48:40.454Z,99.90
2018-07-17T03:53:34.992Z,99.90
2018-07-17T03:58:29.549Z,99.90
2018-07-17T04:03:24.110Z,99.90
2018-07-17T04:08:18.637Z,99.90
2018-07-17T04:13:13.294Z,99.90
2018-07-17T04:18:07.802Z,99.90
2018-07-17T04:23:02.336Z,99.10
2018-07-17T04:27:56.848Z,98.00
2018-07-17T04:32:51.449Z,96.50
2018-07-17T04:37:45.956Z,95.00
2018-07-17T04:42:40.463Z,93.60
2018-07-17T04:47:35.108Z,91.90
2018-07-17T04:52:29.649Z,90.70
2018-07-17T04:57:24.923Z,90.10
2018-07-17T05:02:19.477Z,86.60
2018-07-17T05:07:14.013Z,82.80
2018-07-17T05:12:08.540Z,80.60
2018-07-17T05:17:03.105Z,79.70
2018-07-17T05:21:57.615Z,77.50
2018-07-17T05:26:52.345Z,75.40
2018-07-17T05:31:46.736Z,75.70
2018-07-17T05:36:41.132Z,74.30
2018-07-17T05:41:35.576Z,75.00
2018-07-17T05:46:30.027Z,74.30
2018-07-17T05:51:24.457Z,72.20
2018-07-17T05:56:18.890Z,71.50
2018-07-17T06:06:14.044Z,71.00
2018-07-17T06:11:08.487Z,72.00
2018-07-17T06:16:02.920Z,72.40
2018-07-17T06:20:57.808Z,74.00
2018-07-17T06:25:53.002Z,74.30
2018-07-17T06:30:49.233Z,75.60
2018-07-17T06:35:43.688Z,77.70
2018-07-17T06:40:41.480Z,80.20
2018-07-17T06:45:35.985Z,81.90
2018-07-17T06:50:39.909Z,82.00
2018-07-17T06:55:34.766Z,80.70
2018-07-17T07:00:29.222Z,78.10
2018-07-17T07:05:30.871Z,78.20
2018-07-17T07:10:26.122Z,76.70
2018-07-17T07:20:14.932Z,75.70
2018-07-17T07:25:09.589Z,76.80
2018-07-17T07:30:15.633Z,77.00
2018-07-17T07:35:10.322Z,75.30
2018-07-17T07:40:05.718Z,76.20
2018-07-17T07:45:01.321Z,76.70
2018-07-17T07:49:55.809Z,78.30
2018-07-17T07:54:50.440Z,77.50
2018-07-17T07:59:45.453Z,76.60
2018-07-17T08:04:40.065Z,75.70
2018-07-17T08:09:34.584Z,75.00
2018-07-17T08:14:50.780Z,75.30
2018-07-17T08:19:45.256Z,76.60
2018-07-17T08:24:39.882Z,76.00
2018-07-17T08:29:34.911Z,76.80
2018-07-17T08:34:29.419Z,77.40
2018-07-17T08:39:25.516Z,76.80
2018-07-17T08:44:21.593Z,76.70
2018-07-17T08:49:17.389Z,77.10
2018-07-17T08:54:12.404Z,77.10
2018-07-17T08:59:07.433Z,77.60
2018-07-17T09:04:02.658Z,77.50
2018-07-17T09:08:58.000Z,78.10
2018-07-17T09:13:52.767Z,77.80
2018-07-17T09:18:48.072Z,77.10
2018-07-17T09:23:42.617Z,77.70
2018-07-17T09:28:37.357Z,77.80
2018-07-17T09:33:32.664Z,76.60
2018-07-17T09:38:27.917Z,74.60
2018-07-17T09:43:22.516Z,75.60
2018-07-17T09:48:17.274Z,77.00
2018-07-17T09:53:11.995Z,75.90
2018-07-17T09:58:09.758Z,75.60
2018-07-17T10:03:05.668Z,74.00
2018-07-17T10:08:03.530Z,72.90
2018-07-17T10:12:58.018Z,73.10
2018-07-17T10:17:53.542Z,73.10
2018-07-17T10:22:58.828Z,72.10
2018-07-17T10:27:54.447Z,71.50
2018-07-17T10:32:58.137Z,70.10
2018-07-17T10:37:53.004Z,70.70
2018-07-17T10:42:58.905Z,68.60
2018-07-17T10:47:53.761Z,68.70
2018-07-17T10:52:48.564Z,68.30
2018-07-17T10:57:43.211Z,64.50
2018-07-17T11:02:38.019Z,62.50
2018-07-17T11:07:32.695Z,60.80
2018-07-17T11:12:27.245Z,59.30
2018-07-17T11:17:21.835Z,62.20
2018-07-17T11:22:16.543Z,61.60
2018-07-17T11:27:11.265Z,62.50
2018-07-17T11:32:05.932Z,59.60
2018-07-17T11:37:00.453Z,59.10
2018-07-17T11:41:54.979Z,54.70
2018-07-17T11:51:44.000Z,52.30
2018-07-17T12:01:32.694Z,60.20
2018-07-17T12:06:27.178Z,67.40
2018-07-17T12:11:22.022Z,73.10
2018-07-17T12:16:16.477Z,74.30
2018-07-17T12:21:11.251Z,69.10
2018-07-17T12:31:02.228Z,66.50
2018-07-17T12:35:56.711Z,62.70
2018-07-17T12:41:02.546Z,59.10
2018-07-17T12:45:57.224Z,57.30
2018-07-17T12:50:51.784Z,57.20
2018-07-17T13:00:41.824Z,55.60
2018-07-17T13:10:30.837Z,52.10
2018-07-17T13:20:19.784Z,48.90
2018-07-17T13:25:14.294Z,48.30
2018-07-17T13:30:12.439Z,48.80
2018-07-17T13:35:06.892Z,49.00
2018-07-17T13:40:01.335Z,50.10
2018-07-17T13:49:50.152Z,49.90
2018-07-17T13:59:39.270Z,50.70
2018-07-17T14:04:33.687Z,52.10
2018-07-17T14:09:28.111Z,52.20
2018-07-17T14:19:16.668Z,55.50
2018-07-17T14:24:11.268Z,57.30
2018-07-17T14:38:58.916Z,64.00
2018-07-17T14:43:53.991Z,65.30
2018-07-17T14:48:49.605Z,67.60
2018-07-17T14:53:46.289Z,70.50
2018-07-17T14:58:42.623Z,70.90
2018-07-17T15:08:34.383Z,81.10
2018-07-17T15:13:29.201Z,83.90
2018-07-17T15:18:24.584Z,86.80
2018-07-17T15:23:19.183Z,91.40
2018-07-17T15:28:13.797Z,92.50
2018-07-17T15:33:08.375Z,92.50
2018-07-17T15:38:03.156Z,94.40
2018-07-17T15:47:52.244Z,93.80
2018-07-17T15:52:46.893Z,94.10
2018-07-17T15:57:41.516Z,93.60
2018-07-17T16:02:36.804Z,94.50
2018-07-17T16:07:31.669Z,95.00
2018-07-17T16:12:27.028Z,94.00
2018-07-17T16:17:22.226Z,91.60
2018-07-17T16:22:17.177Z,91.30
2018-07-17T16:27:11.785Z,91.10
2018-07-17T16:37:01.742Z,85.10
2018-07-17T16:41:56.681Z,84.60
2018-07-17T16:46:52.106Z,79.30
2018-07-17T16:51:46.682Z,89.20
2018-07-17T16:56:41.480Z,91.40
2018-07-17T17:01:36.041Z,91.60
2018-07-17T17:06:30.901Z,91.50
2018-07-17T17:11:26.502Z,91.40
2018-07-17T17:16:21.021Z,90.90
2018-07-17T17:26:09.849Z,90.20
2018-07-17T17:31:04.479Z,89.40
2018-07-17T17:35:59.040Z,85.50
2018-07-17T17:45:47.932Z,84.40
2018-07-17T17:50:42.489Z,85.90
2018-07-17T17:55:37.588Z,84.80
2018-07-17T18:00:32.141Z,86.00
2018-07-17T18:05:26.804Z,89.10
2018-07-17T18:10:21.723Z,90.50
2018-07-17T18:15:16.676Z,91.20
2018-07-17T18:20:11.223Z,91.30
2018-07-17T18:25:05.793Z,91.60
2018-07-17T18:30:00.373Z,92.60
2018-07-17T18:34:54.917Z,92.20
2018-07-17T18:39:49.676Z,92.20
2018-07-17T18:44:44.177Z,92.30
2018-07-17T18:49:38.765Z,92.20
2018-07-17T18:54:33.597Z,92.90
2018-07-17T18:59:28.182Z,93.60
2018-07-17T19:04:22.787Z,94.20
2018-07-17T19:09:17.297Z,95.10
2018-07-17T19:14:11.882Z,94.70
2018-07-17T19:19:06.556Z,94.90
2018-07-17T19:24:01.417Z,94.40
2018-07-17T19:28:55.926Z,94.40
2018-07-17T19:33:50.499Z,92.80
2018-07-17T19:38:45.045Z,93.80
2018-07-17T19:43:39.568Z,94.00
2018-07-17T19:48:34.145Z,94.00
2018-07-17T19:53:28.914Z,93.70
2018-07-17T19:58:23.744Z,93.90
2018-07-17T20:08:12.915Z,92.60
2018-07-17T20:13:07.431Z,92.70
2018-07-17T20:18:02.042Z,91.90
2018-07-17T20:22:56.570Z,92.70
2018-07-17T20:27:51.121Z,93.50
2018-07-17T20:32:45.844Z,93.90
2018-07-17T20:37:40.605Z,93.80
2018-07-17T20:42:35.177Z,93.80
2018-07-17T20:47:29.694Z,94.20
2018-07-17T20:52:24.348Z,94.20
2018-07-17T20:57:18.872Z,94.30
2018-07-17T21:02:13.758Z,94.50
2018-07-17T21:07:08.772Z,94.90
2018-07-17T21:12:03.349Z,95.60
2018-07-17T21:21:52.138Z,95.50
2018-07-17T21:26:46.693Z,95.70
2018-07-17T21:31:41.260Z,96.10
2018-07-17T21:36:35.776Z,95.90
2018-07-17T21:41:30.301Z,96.60
2018-07-17T21:46:24.845Z,97.00
2018-07-17T21:51:19.384Z,97.20
2018-07-17T21:56:13.972Z,97.60
2018-07-17T22:01:08.539Z,97.80
2018-07-17T22:06:03.080Z,98.50
2018-07-17T22:10:57.814Z,98.80
2018-07-17T22:20:46.533Z,99.50
2018-07-17T22:25:41.020Z,99.20
2018-07-17T22:30:35.561Z,98.90
2018-07-17T22:35:30.148Z,98.60
2018-07-17T22:40:24.675Z,98.80
2018-07-17T22:45:19.214Z,98.70
2018-07-17T22:50:13.719Z,98.80
2018-07-17T22:55:08.383Z,98.70
2018-07-17T23:00:02.947Z,99.00
2018-07-17T23:04:57.512Z,99.30
2018-07-17T23:09:52.261Z,99.30
2018-07-17T23:14:46.800Z,99.00
2018-07-17T23:19:41.313Z,98.90
2018-07-17T23:24:35.814Z,99.00
2018-07-17T23:29:30.421Z,98.90
2018-07-17T23:34:24.937Z,99.10
2018-07-17T23:39:19.441Z,99.50
2018-07-17T23:44:13.962Z,99.40
2018-07-17T23:49:08.508Z,99.50
2018-07-17T23:58:57.284Z,98.90
